createdAt,value
2023-02-13T00:03:33.064Z,29.27
2023-02-13T00:13:37.740Z,27.70
2023-02-13T00:23:41.294Z,28.73
2023-02-13T00:33:45.955Z,25.90
2023-02-13T00:43:50.423Z,29.73
2023-02-13T00:53:55.155Z,27.33
2023-02-13T01:03:58.402Z,26.43
2023-02-13T01:14:03.060Z,27.07
2023-02-13T01:24:07.236Z,26.73
2023-02-13T01:34:13.649Z,27.47
2023-02-13T01:44:49.493Z,29.77
2023-02-13T01:54:54.695Z,29.47
2023-02-13T02:04:58.048Z,28.70
2023-02-13T02:15:04.990Z,29.23
2023-02-13T02:25:39.484Z,28.13
2023-02-13T02:36:00.170Z,30.73
2023-02-13T02:46:14.722Z,31.57
2023-02-13T02:56:24.467Z,28.57
2023-02-13T03:06:33.482Z,28.73
2023-02-13T03:16:55.479Z,30.43
2023-02-13T03:27:07.244Z,28.87
2023-02-13T03:37:32.364Z,31.70
2023-02-13T03:47:36.411Z,28.97
2023-02-13T03:58:01.873Z,31.27
2023-02-13T04:08:05.300Z,29.17
2023-02-13T04:18:14.346Z,31.87
2023-02-13T04:28:17.727Z,31.93
2023-02-13T04:38:22.317Z,29.77
2023-02-13T04:48:25.542Z,30.63
2023-02-13T04:58:31.273Z,26.90
2023-02-13T05:08:34.598Z,28.37
2023-02-13T05:18:39.081Z,28.03
2023-02-13T05:28:59.695Z,26.87
2023-02-13T05:39:04.843Z,29.80
2023-02-13T05:49:09.182Z,32.03
2023-02-13T05:59:13.982Z,32.33
2023-02-13T06:09:17.214Z,30.43
2023-02-13T06:19:21.718Z,31.97
2023-02-13T06:29:24.869Z,29.67
2023-02-13T06:39:29.467Z,30.60
2023-02-13T06:49:32.704Z,30.00
2023-02-13T06:59:37.203Z,30.40
2023-02-13T07:09:41.187Z,33.07
2023-02-13T07:19:45.837Z,30.23
2023-02-13T07:29:49.031Z,26.87
2023-02-13T07:39:53.630Z,31.97
2023-02-13T07:49:56.829Z,36.90
2023-02-13T08:00:01.410Z,42.80
2023-02-13T08:10:33.273Z,39.67
2023-02-13T08:20:38.203Z,37.87
2023-02-13T08:30:41.492Z,41.27
2023-02-13T08:40:46.064Z,42.27
2023-02-13T08:50:49.206Z,41.37
2023-02-13T09:00:54.063Z,35.87
2023-02-13T09:10:58.854Z,34.57
2023-02-13T09:21:05.290Z,33.93
2023-02-13T09:31:09.273Z,36.03
2023-02-13T09:41:17.661Z,35.07
2023-02-13T09:51:23.330Z,33.73
2023-02-13T10:01:32.656Z,30.50
2023-02-13T10:11:48.392Z,34.27
2023-02-13T10:21:57.792Z,36.63
2023-02-13T10:32:03.905Z,34.73
2023-02-13T10:42:22.838Z,35.47
2023-02-13T10:52:36.255Z,34.63
2023-02-13T11:02:41.316Z,31.00
2023-02-13T11:12:44.766Z,36.03
2023-02-13T11:22:50.112Z,34.23
2023-02-13T11:32:59.891Z,34.00
2023-02-13T11:43:07.713Z,33.17
2023-02-13T11:53:20.791Z,35.03
2023-02-13T12:03:31.691Z,32.57
2023-02-13T12:13:38.957Z,32.80
2023-02-13T12:23:49.974Z,31.83
2023-02-13T12:34:24.034Z,32.60
2023-02-13T12:44:50.143Z,29.27
2023-02-13T12:55:05.485Z,27.57
2023-02-13T13:05:20.502Z,27.43
2023-02-13T13:15:34.068Z,24.10
2023-02-13T13:25:45.843Z,21.17
2023-02-13T13:35:56.167Z,19.67
2023-02-13T13:46:09.337Z,26.07
2023-02-13T13:56:12.623Z,23.13
2023-02-13T14:06:18.814Z,23.30
2023-02-13T14:16:40.785Z,26.23
2023-02-13T14:27:04.749Z,27.43
2023-02-13T14:37:20.985Z,28.40
2023-02-13T14:47:32.690Z,32.60
2023-02-13T14:57:39.885Z,28.97
2023-02-13T15:07:48.636Z,32.80
2023-02-13T15:17:53.828Z,31.87
2023-02-13T15:27:59.762Z,35.60
2023-02-13T15:38:21.235Z,34.67
2023-02-13T15:48:26.055Z,33.77
2023-02-13T15:58:33.861Z,34.67
2023-02-13T16:08:43.820Z,34.17
2023-02-13T16:18:47.257Z,35.37
2023-02-13T16:28:51.877Z,37.80
2023-02-13T16:38:55.190Z,37.00
2023-02-13T16:49:19.395Z,36.23
2023-02-13T16:59:30.252Z,38.33
2023-02-13T17:09:34.733Z,36.10
2023-02-13T17:19:37.970Z,36.13
2023-02-13T17:29:42.564Z,36.83
2023-02-13T17:39:46.216Z,38.80
2023-02-13T17:49:55.177Z,39.87
2023-02-13T18:00:03.440Z,39.70
2023-02-13T18:10:18.851Z,40.13
2023-02-13T18:20:22.718Z,37.73
2023-02-13T18:30:27.474Z,45.33
2023-02-13T18:40:30.721Z,41.43
2023-02-13T18:50:35.478Z,39.93
2023-02-13T19:00:38.666Z,41.57
2023-02-13T19:10:43.177Z,38.43
2023-02-13T19:20:46.356Z,37.40
2023-02-13T19:30:51.226Z,37.23
2023-02-13T19:40:54.552Z,41.07
2023-02-13T19:50:59.497Z,43.40
2023-02-13T20:01:08.338Z,38.27
2023-02-13T20:11:14.805Z,41.43
2023-02-13T20:21:19.696Z,39.80
2023-02-13T20:31:24.688Z,36.43
2023-02-13T20:41:30.357Z,37.90
2023-02-13T20:51:35.159Z,36.77
2023-02-13T21:01:41.432Z,37.60
2023-02-13T21:11:46.256Z,41.27
2023-02-13T21:21:49.471Z,38.03
2023-02-13T21:31:54.030Z,43.37
2023-02-13T21:41:57.231Z,37.13
2023-02-13T21:52:01.779Z,42.73
2023-02-13T22:02:05.038Z,39.23
2023-02-13T22:12:09.689Z,38.43
2023-02-13T22:22:12.991Z,41.63
2023-02-13T22:32:17.649Z,41.33
2023-02-13T22:42:21.218Z,36.77
2023-02-13T22:52:25.839Z,35.20
2023-02-13T23:02:29.047Z,34.43
2023-02-13T23:12:40.965Z,35.03
2023-02-13T23:22:44.208Z,33.27
2023-02-13T23:32:49.112Z,39.33
2023-02-13T23:42:52.285Z,37.80
2023-02-13T23:52:56.955Z,38.70
